sensor_id;sensor_type;location;lat;lon;timestamp;P1;durP1;ratioP1;P2;durP2;ratioP2
12601;SDS011;30282;16.436;99.370;2023-10-13T00:02:17;15.80;;;8.33;;
12601;SDS011;30282;16.436;99.370;2023-10-13T00:04:48;16.73;;;8.83;;
12601;SDS011;30282;16.436;99.370;2023-10-13T00:07:22;26.43;;;9.20;;
12601;SDS011;30282;16.436;99.370;2023-10-13T00:09:52;13.90;;;8.73;;
12601;SDS011;30282;16.436;99.370;2023-10-13T00:12:22;17.80;;;9.37;;
12601;SDS011;30282;16.436;99.370;2023-10-13T00:14:59;15.70;;;9.30;;
12601;SDS011;30282;16.436;99.370;2023-10-13T00:17:39;17.93;;;9.77;;
12601;SDS011;30282;16.436;99.370;2023-10-13T00:20:15;17.63;;;10.07;;
12601;SDS011;30282;16.436;99.370;2023-10-13T00:22:59;23.37;;;10.40;;
12601;SDS011;30282;16.436;99.370;2023-10-13T00:25:29;20.87;;;8.93;;
12601;SDS011;30282;16.436;99.370;2023-10-13T00:28:09;14.33;;;9.23;;
12601;SDS011;30282;16.436;99.370;2023-10-13T00:30:50;15.37;;;9.97;;
12601;SDS011;30282;16.436;99.370;2023-10-13T00:33:25;16.07;;;10.00;;
12601;SDS011;30282;16.436;99.370;2023-10-13T00:35:59;19.47;;;9.70;;
12601;SDS011;30282;16.436;99.370;2023-10-13T00:38:31;17.27;;;8.87;;
12601;SDS011;30282;16.436;99.370;2023-10-13T00:41:06;15.60;;;10.03;;
12601;SDS011;30282;16.436;99.370;2023-10-13T00:43:44;13.87;;;9.07;;
12601;SDS011;30282;16.436;99.370;2023-10-13T00:46:34;13.67;;;8.70;;
12601;SDS011;30282;16.436;99.370;2023-10-13T00:49:04;9.47;;;7.20;;
12601;SDS011;30282;16.436;99.370;2023-10-13T00:51:35;12.63;;;8.77;;
12601;SDS011;30282;16.436;99.370;2023-10-13T00:54:07;11.57;;;7.70;;
12601;SDS011;30282;16.436;99.370;2023-10-13T00:56:42;14.83;;;8.17;;
12601;SDS011;30282;16.436;99.370;2023-10-13T00:59:15;12.63;;;7.10;;
12601;SDS011;30282;16.436;99.370;2023-10-13T01:01:51;12.70;;;6.60;;
12601;SDS011;30282;16.436;99.370;2023-10-13T01:04:24;9.57;;;6.70;;
12601;SDS011;30282;16.436;99.370;2023-10-13T01:07:00;10.47;;;7.03;;
12601;SDS011;30282;16.436;99.370;2023-10-13T01:09:40;14.33;;;6.67;;
12601;SDS011;30282;16.436;99.370;2023-10-13T01:12:10;10.30;;;5.97;;
12601;SDS011;30282;16.436;99.370;2023-10-13T01:14:41;15.00;;;6.97;;
12601;SDS011;30282;16.436;99.370;2023-10-13T01:17:13;11.27;;;6.37;;
12601;SDS011;30282;16.436;99.370;2023-10-13T01:19:41;9.60;;;5.27;;
12601;SDS011;30282;16.436;99.370;2023-10-13T01:22:11;7.73;;;4.63;;
12601;SDS011;30282;16.436;99.370;2023-10-13T01:24:44;7.63;;;5.00;;
12601;SDS011;30282;16.436;99.370;2023-10-13T01:27:14;8.60;;;5.50;;
12601;SDS011;30282;16.436;99.370;2023-10-13T01:29:43;8.73;;;4.93;;
12601;SDS011;30282;16.436;99.370;2023-10-13T01:32:16;13.50;;;5.30;;
12601;SDS011;30282;16.436;99.370;2023-10-13T01:34:46;6.10;;;4.53;;
12601;SDS011;30282;16.436;99.370;2023-10-13T01:37:15;7.70;;;4.93;;
12601;SDS011;30282;16.436;99.370;2023-10-13T01:39:47;8.83;;;4.90;;
12601;SDS011;30282;16.436;99.370;2023-10-13T01:42:16;9.10;;;5.30;;
12601;SDS011;30282;16.436;99.370;2023-10-13T01:44:47;9.40;;;4.57;;
12601;SDS011;30282;16.436;99.370;2023-10-13T01:47:15;8.03;;;4.83;;
12601;SDS011;30282;16.436;99.370;2023-10-13T01:49:49;13.83;;;4.67;;
12601;SDS011;30282;16.436;99.370;2023-10-13T01:52:17;11.33;;;4.60;;
12601;SDS011;30282;16.436;99.370;2023-10-13T01:54:54;8.13;;;4.73;;
12601;SDS011;30282;16.436;99.370;2023-10-13T01:57:26;8.10;;;4.20;;
12601;SDS011;30282;16.436;99.370;2023-10-13T01:59:56;6.80;;;4.40;;
12601;SDS011;30282;16.436;99.370;2023-10-13T02:02:30;8.40;;;4.20;;
12601;SDS011;30282;16.436;99.370;2023-10-13T02:05:00;8.27;;;4.63;;
12601;SDS011;30282;16.436;99.370;2023-10-13T02:07:28;8.10;;;4.30;;
12601;SDS011;30282;16.436;99.370;2023-10-13T02:10:02;10.40;;;5.97;;
12601;SDS011;30282;16.436;99.370;2023-10-13T02:12:31;13.13;;;4.43;;
12601;SDS011;30282;16.436;99.370;2023-10-13T02:15:08;10.83;;;4.67;;
12601;SDS011;30282;16.436;99.370;2023-10-13T02:17:47;11.23;;;4.30;;
12601;SDS011;30282;16.436;99.370;2023-10-13T02:20:17;6.90;;;4.70;;
12601;SDS011;30282;16.436;99.370;2023-10-13T02:22:48;8.13;;;4.40;;
12601;SDS011;30282;16.436;99.370;2023-10-13T02:25:19;13.20;;;5.00;;
12601;SDS011;30282;16.436;99.370;2023-10-13T02:28:01;4.67;;;3.33;;
12601;SDS011;30282;16.436;99.370;2023-10-13T02:30:37;7.53;;;4.83;;
12601;SDS011;30282;16.436;99.370;2023-10-13T02:33:05;6.23;;;4.33;;
12601;SDS011;30282;16.436;99.370;2023-10-13T02:35:38;14.30;;;4.20;;
12601;SDS011;30282;16.436;99.370;2023-10-13T02:38:16;7.73;;;4.03;;
12601;SDS011;30282;16.436;99.370;2023-10-13T02:40:54;7.80;;;4.53;;
12601;SDS011;30282;16.436;99.370;2023-10-13T02:43:23;6.33;;;3.50;;
12601;SDS011;30282;16.436;99.370;2023-10-13T02:45:57;6.03;;;3.73;;
12601;SDS011;30282;16.436;99.370;2023-10-13T02:48:26;12.23;;;5.67;;
12601;SDS011;30282;16.436;99.370;2023-10-13T02:51:05;6.63;;;4.30;;
12601;SDS011;30282;16.436;99.370;2023-10-13T02:53:42;8.50;;;4.30;;
12601;SDS011;30282;16.436;99.370;2023-10-13T02:56:16;6.00;;;4.43;;
12601;SDS011;30282;16.436;99.370;2023-10-13T02:58:47;8.00;;;3.70;;
12601;SDS011;30282;16.436;99.370;2023-10-13T03:01:22;7.23;;;3.33;;
12601;SDS011;30282;16.436;99.370;2023-10-13T03:03:54;5.63;;;3.50;;
12601;SDS011;30282;16.436;99.370;2023-10-13T03:06:26;6.57;;;3.53;;
12601;SDS011;30282;16.436;99.370;2023-10-13T03:08:58;6.67;;;3.47;;
12601;SDS011;30282;16.436;99.370;2023-10-13T03:11:42;8.77;;;3.53;;
12601;SDS011;30282;16.436;99.370;2023-10-13T03:14:14;7.57;;;3.93;;
12601;SDS011;30282;16.436;99.370;2023-10-13T03:16:57;5.57;;;4.20;;
12601;SDS011;30282;16.436;99.370;2023-10-13T03:19:28;7.50;;;4.40;;
12601;SDS011;30282;16.436;99.370;2023-10-13T03:22:00;7.10;;;4.47;;
12601;SDS011;30282;16.436;99.370;2023-10-13T03:24:35;7.27;;;4.80;;
12601;SDS011;30282;16.436;99.370;2023-10-13T03:27:13;7.40;;;4.17;;
12601;SDS011;30282;16.436;99.370;2023-10-13T03:29:44;12.03;;;4.10;;
12601;SDS011;30282;16.436;99.370;2023-10-13T03:32:14;5.30;;;3.90;;
12601;SDS011;30282;16.436;99.370;2023-10-13T03:34:44;8.40;;;3.73;;
12601;SDS011;30282;16.436;99.370;2023-10-13T03:37:32;12.03;;;4.27;;
12601;SDS011;30282;16.436;99.370;2023-10-13T03:40:05;6.47;;;4.40;;
12601;SDS011;30282;16.436;99.370;2023-10-13T03:42:59;7.30;;;4.40;;
12601;SDS011;30282;16.436;99.370;2023-10-13T03:45:30;5.07;;;3.50;;
12601;SDS011;30282;16.436;99.370;2023-10-13T03:48:03;5.60;;;4.00;;
12601;SDS011;30282;16.436;99.370;2023-10-13T03:50:37;8.93;;;3.77;;
12601;SDS011;30282;16.436;99.370;2023-10-13T03:53:13;5.80;;;3.87;;
12601;SDS011;30282;16.436;99.370;2023-10-13T03:55:43;8.10;;;4.33;;
12601;SDS011;30282;16.436;99.370;2023-10-13T03:58:15;6.27;;;4.03;;
12601;SDS011;30282;16.436;99.370;2023-10-13T04:00:48;6.93;;;4.07;;
12601;SDS011;30282;16.436;99.370;2023-10-13T04:03:18;7.03;;;3.80;;
12601;SDS011;30282;16.436;99.370;2023-10-13T04:05:58;10.53;;;3.93;;
12601;SDS011;30282;16.436;99.370;2023-10-13T04:08:32;7.37;;;3.30;;
12601;SDS011;30282;16.436;99.370;2023-10-13T04:11:34;9.80;;;3.73;;
12601;SDS011;30282;16.436;99.370;2023-10-13T04:14:31;6.50;;;4.00;;
12601;SDS011;30282;16.436;99.370;2023-10-13T04:17:14;6.70;;;3.50;;
12601;SDS011;30282;16.436;99.370;2023-10-13T04:19:48;7.50;;;3.83;;
12601;SDS011;30282;16.436;99.370;2023-10-13T04:22:31;7.50;;;3.90;;
12601;SDS011;30282;16.436;99.370;2023-10-13T04:25:17;4.57;;;2.90;;
12601;SDS011;30282;16.436;99.370;2023-10-13T04:28:05;6.77;;;4.30;;
12601;SDS011;30282;16.436;99.370;2023-10-13T04:31:02;6.00;;;3.23;;
12601;SDS011;30282;16.436;99.370;2023-10-13T04:33:50;5.67;;;3.63;;
12601;SDS011;30282;16.436;99.370;2023-10-13T04:36:22;6.80;;;3.90;;
12601;SDS011;30282;16.436;99.370;2023-10-13T04:39:11;5.30;;;3.73;;
12601;SDS011;30282;16.436;99.370;2023-10-13T04:41:55;5.33;;;3.50;;
12601;SDS011;30282;16.436;99.370;2023-10-13T04:44:39;5.47;;;3.30;;
12601;SDS011;30282;16.436;99.370;2023-10-13T04:47:20;6.00;;;3.43;;
12601;SDS011;30282;16.436;99.370;2023-10-13T04:49:51;4.50;;;3.30;;
12601;SDS011;30282;16.436;99.370;2023-10-13T04:52:26;9.70;;;3.27;;
12601;SDS011;30282;16.436;99.370;2023-10-13T04:55:27;5.17;;;3.67;;
12601;SDS011;30282;16.436;99.370;2023-10-13T04:58:09;9.40;;;4.10;;
12601;SDS011;30282;16.436;99.370;2023-10-13T05:00:40;5.03;;;3.47;;
12601;SDS011;30282;16.436;99.370;2023-10-13T05:03:47;5.50;;;3.60;;
12601;SDS011;30282;16.436;99.370;2023-10-13T05:06:48;6.63;;;4.00;;
12601;SDS011;30282;16.436;99.370;2023-10-13T05:09:36;4.87;;;3.40;;
12601;SDS011;30282;16.436;99.370;2023-10-13T05:12:22;5.80;;;3.20;;
12601;SDS011;30282;16.436;99.370;2023-10-13T05:15:08;10.30;;;3.50;;
12601;SDS011;30282;16.436;99.370;2023-10-13T05:17:57;5.93;;;3.93;;
12601;SDS011;30282;16.436;99.370;2023-10-13T05:20:45;5.90;;;4.20;;
12601;SDS011;30282;16.436;99.370;2023-10-13T05:23:31;8.57;;;4.13;;
12601;SDS011;30282;16.436;99.370;2023-10-13T05:26:17;4.93;;;3.70;;
12601;SDS011;30282;16.436;99.370;2023-10-13T05:29:03;7.50;;;4.00;;
12601;SDS011;30282;16.436;99.370;2023-10-13T05:31:51;5.37;;;4.00;;
12601;SDS011;30282;16.436;99.370;2023-10-13T05:34:37;5.17;;;3.60;;
12601;SDS011;30282;16.436;99.370;2023-10-13T05:37:22;7.40;;;4.50;;
12601;SDS011;30282;16.436;99.370;2023-10-13T05:40:08;5.10;;;3.57;;
12601;SDS011;30282;16.436;99.370;2023-10-13T05:43:06;9.53;;;3.47;;
12601;SDS011;30282;16.436;99.370;2023-10-13T05:46:06;8.40;;;4.07;;
12601;SDS011;30282;16.436;99.370;2023-10-13T05:49:02;9.53;;;3.60;;
12601;SDS011;30282;16.436;99.370;2023-10-13T05:51:45;7.43;;;4.17;;
12601;SDS011;30282;16.436;99.370;2023-10-13T05:54:25;7.33;;;3.70;;
12601;SDS011;30282;16.436;99.370;2023-10-13T05:57:13;6.33;;;3.40;;
12601;SDS011;30282;16.436;99.370;2023-10-13T06:00:05;8.63;;;4.10;;
12601;SDS011;30282;16.436;99.370;2023-10-13T06:02:51;6.30;;;3.80;;
12601;SDS011;30282;16.436;99.370;2023-10-13T06:05:38;6.77;;;3.70;;
12601;SDS011;30282;16.436;99.370;2023-10-13T06:08:24;4.50;;;3.50;;
12601;SDS011;30282;16.436;99.370;2023-10-13T06:11:11;5.03;;;3.27;;
12601;SDS011;30282;16.436;99.370;2023-10-13T06:13:57;6.53;;;4.50;;
12601;SDS011;30282;16.436;99.370;2023-10-13T06:16:43;7.10;;;3.70;;
12601;SDS011;30282;16.436;99.370;2023-10-13T06:19:29;5.00;;;3.23;;
12601;SDS011;30282;16.436;99.370;2023-10-13T06:22:15;6.93;;;4.07;;
12601;SDS011;30282;16.436;99.370;2023-10-13T06:25:01;5.30;;;3.20;;
12601;SDS011;30282;16.436;99.370;2023-10-13T06:27:48;5.43;;;3.60;;
12601;SDS011;30282;16.436;99.370;2023-10-13T06:30:34;9.50;;;3.90;;
12601;SDS011;30282;16.436;99.370;2023-10-13T06:33:04;5.23;;;3.33;;
12601;SDS011;30282;16.436;99.370;2023-10-13T06:35:34;4.57;;;3.07;;
12601;SDS011;30282;16.436;99.370;2023-10-13T06:38:04;5.43;;;3.90;;
12601;SDS011;30282;16.436;99.370;2023-10-13T06:40:46;6.33;;;3.63;;
12601;SDS011;30282;16.436;99.370;2023-10-13T06:43:18;6.57;;;3.57;;
12601;SDS011;30282;16.436;99.370;2023-10-13T06:45:49;5.90;;;3.60;;
12601;SDS011;30282;16.436;99.370;2023-10-13T06:48:26;5.90;;;3.13;;
12601;SDS011;30282;16.436;99.370;2023-10-13T06:50:59;5.20;;;3.00;;
12601;SDS011;30282;16.436;99.370;2023-10-13T06:53:43;7.33;;;3.30;;
12601;SDS011;30282;16.436;99.370;2023-10-13T06:56:24;5.30;;;3.50;;
12601;SDS011;30282;16.436;99.370;2023-10-13T06:59:07;9.03;;;2.83;;
12601;SDS011;30282;16.436;99.370;2023-10-13T07:01:39;4.60;;;2.90;;
12601;SDS011;30282;16.436;99.370;2023-10-13T07:04:10;4.90;;;3.40;;
12601;SDS011;30282;16.436;99.370;2023-10-13T07:06:43;6.50;;;3.00;;
12601;SDS011;30282;16.436;99.370;2023-10-13T07:09:15;5.23;;;3.10;;
12601;SDS011;30282;16.436;99.370;2023-10-13T07:11:58;4.93;;;2.70;;
12601;SDS011;30282;16.436;99.370;2023-10-13T07:14:31;4.97;;;3.27;;
12601;SDS011;30282;16.436;99.370;2023-10-13T07:17:01;6.60;;;4.40;;
12601;SDS011;30282;16.436;99.370;2023-10-13T07:19:33;5.43;;;3.47;;
12601;SDS011;30282;16.436;99.370;2023-10-13T07:22:19;6.77;;;3.00;;
12601;SDS011;30282;16.436;99.370;2023-10-13T07:24:49;5.43;;;2.87;;
12601;SDS011;30282;16.436;99.370;2023-10-13T07:27:19;9.50;;;3.30;;
12601;SDS011;30282;16.436;99.370;2023-10-13T07:29:54;5.40;;;3.47;;
12601;SDS011;30282;16.436;99.370;2023-10-13T07:32:39;5.20;;;2.90;;
12601;SDS011;30282;16.436;99.370;2023-10-13T07:35:11;5.90;;;3.17;;
12601;SDS011;30282;16.436;99.370;2023-10-13T07:37:43;6.83;;;3.10;;
12601;SDS011;30282;16.436;99.370;2023-10-13T07:40:14;4.33;;;2.80;;
12601;SDS011;30282;16.436;99.370;2023-10-13T07:43:05;5.67;;;3.13;;
12601;SDS011;30282;16.436;99.370;2023-10-13T07:45:39;5.50;;;3.47;;
12601;SDS011;30282;16.436;99.370;2023-10-13T07:48:09;5.43;;;2.80;;
12601;SDS011;30282;16.436;99.370;2023-10-13T07:50:46;4.60;;;2.90;;
12601;SDS011;30282;16.436;99.370;2023-10-13T07:53:16;6.67;;;3.37;;
12601;SDS011;30282;16.436;99.370;2023-10-13T07:55:50;7.33;;;4.43;;
12601;SDS011;30282;16.436;99.370;2023-10-13T07:58:22;5.37;;;3.50;;
12601;SDS011;30282;16.436;99.370;2023-10-13T08:00:54;8.10;;;3.53;;
12601;SDS011;30282;16.436;99.370;2023-10-13T08:03:34;4.90;;;2.90;;
12601;SDS011;30282;16.436;99.370;2023-10-13T08:06:11;7.33;;;3.30;;
12601;SDS011;30282;16.436;99.370;2023-10-13T08:08:52;5.40;;;3.47;;
12601;SDS011;30282;16.436;99.370;2023-10-13T08:11:32;5.17;;;2.90;;
12601;SDS011;30282;16.436;99.370;2023-10-13T08:14:03;6.83;;;3.87;;
12601;SDS011;30282;16.436;99.370;2023-10-13T08:16:49;9.97;;;3.73;;
12601;SDS011;30282;16.436;99.370;2023-10-13T08:19:25;5.20;;;3.30;;
12601;SDS011;30282;16.436;99.370;2023-10-13T08:22:08;5.13;;;3.10;;
12601;SDS011;30282;16.436;99.370;2023-10-13T08:25:01;5.70;;;3.67;;
12601;SDS011;30282;16.436;99.370;2023-10-13T08:27:46;8.93;;;3.90;;
12601;SDS011;30282;16.436;99.370;2023-10-13T08:30:16;5.60;;;3.63;;
12601;SDS011;30282;16.436;99.370;2023-10-13T08:32:56;7.03;;;4.37;;
12601;SDS011;30282;16.436;99.370;2023-10-13T08:35:42;9.03;;;3.70;;
12601;SDS011;30282;16.436;99.370;2023-10-13T08:38:28;5.50;;;3.50;;
12601;SDS011;30282;16.436;99.370;2023-10-13T08:41:09;6.20;;;3.23;;
12601;SDS011;30282;16.436;99.370;2023-10-13T08:44:03;6.00;;;2.97;;
12601;SDS011;30282;16.436;99.370;2023-10-13T08:46:35;7.40;;;3.97;;
12601;SDS011;30282;16.436;99.370;2023-10-13T08:49:31;8.40;;;3.83;;
12601;SDS011;30282;16.436;99.370;2023-10-13T08:52:11;5.90;;;3.67;;
12601;SDS011;30282;16.436;99.370;2023-10-13T08:55:00;5.93;;;3.23;;
12601;SDS011;30282;16.436;99.370;2023-10-13T08:58:01;8.63;;;3.90;;
12601;SDS011;30282;16.436;99.370;2023-10-13T09:00:39;7.67;;;3.80;;
12601;SDS011;30282;16.436;99.370;2023-10-13T09:03:32;6.10;;;3.30;;
12601;SDS011;30282;16.436;99.370;2023-10-13T09:06:08;8.10;;;3.20;;
12601;SDS011;30282;16.436;99.370;2023-10-13T09:08:45;8.57;;;3.53;;
12601;SDS011;30282;16.436;99.370;2023-10-13T09:11:27;4.57;;;3.20;;
12601;SDS011;30282;16.436;99.370;2023-10-13T09:14:14;6.43;;;3.37;;
12601;SDS011;30282;16.436;99.370;2023-10-13T09:17:01;5.37;;;3.33;;
12601;SDS011;30282;16.436;99.370;2023-10-13T09:19:47;7.03;;;3.47;;
12601;SDS011;30282;16.436;99.370;2023-10-13T09:22:24;6.87;;;3.60;;
12601;SDS011;30282;16.436;99.370;2023-10-13T09:24:57;5.63;;;3.57;;
12601;SDS011;30282;16.436;99.370;2023-10-13T09:27:29;4.83;;;3.40;;
12601;SDS011;30282;16.436;99.370;2023-10-13T09:30:03;5.20;;;3.40;;
12601;SDS011;30282;16.436;99.370;2023-10-13T09:32:44;4.40;;;2.90;;
12601;SDS011;30282;16.436;99.370;2023-10-13T09:35:18;6.23;;;3.30;;
12601;SDS011;30282;16.436;99.370;2023-10-13T09:37:51;5.43;;;3.63;;
12601;SDS011;30282;16.436;99.370;2023-10-13T09:40:22;6.60;;;4.10;;
12601;SDS011;30282;16.436;99.370;2023-10-13T09:42:59;8.13;;;3.90;;
12601;SDS011;30282;16.436;99.370;2023-10-13T09:45:33;6.30;;;3.87;;
12601;SDS011;30282;16.436;99.370;2023-10-13T09:48:08;8.10;;;4.60;;
12601;SDS011;30282;16.436;99.370;2023-10-13T09:50:47;5.83;;;3.53;;
12601;SDS011;30282;16.436;99.370;2023-10-13T09:53:17;6.03;;;4.00;;
12601;SDS011;30282;16.436;99.370;2023-10-13T09:55:54;18.10;;;4.30;;
12601;SDS011;30282;16.436;99.370;2023-10-13T09:58:48;5.97;;;3.90;;
12601;SDS011;30282;16.436;99.370;2023-10-13T10:01:27;7.93;;;3.60;;
12601;SDS011;30282;16.436;99.370;2023-10-13T10:04:07;6.90;;;3.70;;
12601;SDS011;30282;16.436;99.370;2023-10-13T10:06:51;8.30;;;4.10;;
12601;SDS011;30282;16.436;99.370;2023-10-13T10:09:29;6.27;;;4.27;;
12601;SDS011;30282;16.436;99.370;2023-10-13T10:12:14;6.90;;;4.03;;
12601;SDS011;30282;16.436;99.370;2023-10-13T10:15:06;15.10;;;4.73;;
12601;SDS011;30282;16.436;99.370;2023-10-13T10:17:46;8.40;;;5.03;;
12601;SDS011;30282;16.436;99.370;2023-10-13T10:20:33;14.63;;;4.43;;
12601;SDS011;30282;16.436;99.370;2023-10-13T10:23:26;9.60;;;4.53;;
12601;SDS011;30282;16.436;99.370;2023-10-13T10:26:11;10.00;;;3.80;;
12601;SDS011;30282;16.436;99.370;2023-10-13T10:28:46;9.97;;;4.60;;
12601;SDS011;30282;16.436;99.370;2023-10-13T10:31:21;5.83;;;3.90;;
12601;SDS011;30282;16.436;99.370;2023-10-13T10:34:11;12.07;;;6.13;;
12601;SDS011;30282;16.436;99.370;2023-10-13T10:36:53;7.10;;;4.40;;
12601;SDS011;30282;16.436;99.370;2023-10-13T10:39:35;7.97;;;4.67;;
12601;SDS011;30282;16.436;99.370;2023-10-13T10:42:14;5.50;;;4.03;;
12601;SDS011;30282;16.436;99.370;2023-10-13T10:44:52;7.60;;;4.17;;
12601;SDS011;30282;16.436;99.370;2023-10-13T10:47:31;10.47;;;5.10;;
12601;SDS011;30282;16.436;99.370;2023-10-13T10:50:05;6.43;;;4.07;;
12601;SDS011;30282;16.436;99.370;2023-10-13T10:52:45;14.23;;;5.30;;
12601;SDS011;30282;16.436;99.370;2023-10-13T10:55:19;8.13;;;4.70;;
12601;SDS011;30282;16.436;99.370;2023-10-13T10:58:02;6.53;;;4.70;;
12601;SDS011;30282;16.436;99.370;2023-10-13T11:01:04;6.00;;;4.60;;
12601;SDS011;30282;16.436;99.370;2023-10-13T11:03:36;8.07;;;3.90;;
12601;SDS011;30282;16.436;99.370;2023-10-13T11:06:12;7.97;;;5.23;;
12601;SDS011;30282;16.436;99.370;2023-10-13T11:08:43;7.60;;;4.50;;
12601;SDS011;30282;16.436;99.370;2023-10-13T11:11:28;6.90;;;4.50;;
12601;SDS011;30282;16.436;99.370;2023-10-13T11:14:03;7.70;;;4.77;;
12601;SDS011;30282;16.436;99.370;2023-10-13T11:16:46;10.90;;;4.97;;
12601;SDS011;30282;16.436;99.370;2023-10-13T11:19:20;12.40;;;4.83;;
12601;SDS011;30282;16.436;99.370;2023-10-13T11:22:09;8.63;;;4.77;;
12601;SDS011;30282;16.436;99.370;2023-10-13T11:24:55;7.40;;;5.20;;
12601;SDS011;30282;16.436;99.370;2023-10-13T11:27:37;10.60;;;5.07;;
12601;SDS011;30282;16.436;99.370;2023-10-13T11:30:28;6.20;;;4.37;;
12601;SDS011;30282;16.436;99.370;2023-10-13T11:33:09;6.77;;;5.00;;
12601;SDS011;30282;16.436;99.370;2023-10-13T11:35:43;10.07;;;5.40;;
12601;SDS011;30282;16.436;99.370;2023-10-13T11:38:28;8.27;;;4.73;;
12601;SDS011;30282;16.436;99.370;2023-10-13T11:41:09;9.30;;;5.00;;
12601;SDS011;30282;16.436;99.370;2023-10-13T11:43:43;8.03;;;4.50;;
12601;SDS011;30282;16.436;99.370;2023-10-13T11:46:28;14.53;;;5.37;;
12601;SDS011;30282;16.436;99.370;2023-10-13T11:49:14;17.33;;;5.77;;
12601;SDS011;30282;16.436;99.370;2023-10-13T11:52:00;8.10;;;4.97;;
12601;SDS011;30282;16.436;99.370;2023-10-13T11:54:51;10.03;;;5.90;;
12601;SDS011;30282;16.436;99.370;2023-10-13T11:57:26;10.27;;;4.93;;
12601;SDS011;30282;16.436;99.370;2023-10-13T11:59:56;15.40;;;5.67;;
12601;SDS011;30282;16.436;99.370;2023-10-13T12:02:47;15.00;;;5.60;;
12601;SDS011;30282;16.436;99.370;2023-10-13T12:05:35;10.00;;;5.23;;
12601;SDS011;30282;16.436;99.370;2023-10-13T12:08:36;13.63;;;5.20;;
12601;SDS011;30282;16.436;99.370;2023-10-13T12:11:15;11.33;;;5.90;;
12601;SDS011;30282;16.436;99.370;2023-10-13T12:14:04;9.70;;;5.33;;
12601;SDS011;30282;16.436;99.370;2023-10-13T12:16:43;9.20;;;5.90;;
12601;SDS011;30282;16.436;99.370;2023-10-13T12:19:21;10.10;;;5.67;;
12601;SDS011;30282;16.436;99.370;2023-10-13T12:21:52;9.37;;;5.33;;
12601;SDS011;30282;16.436;99.370;2023-10-13T12:24:23;9.30;;;6.60;;
12601;SDS011;30282;16.436;99.370;2023-10-13T12:27:06;11.80;;;6.07;;
12601;SDS011;30282;16.436;99.370;2023-10-13T12:29:46;10.57;;;6.57;;
12601;SDS011;30282;16.436;99.370;2023-10-13T12:32:19;12.17;;;6.03;;
12601;SDS011;30282;16.436;99.370;2023-10-13T12:34:52;9.67;;;5.30;;
12601;SDS011;30282;16.436;99.370;2023-10-13T12:37:43;8.13;;;5.70;;
12601;SDS011;30282;16.436;99.370;2023-10-13T12:40:18;7.87;;;5.40;;
12601;SDS011;30282;16.436;99.370;2023-10-13T12:43:04;10.37;;;5.83;;
12601;SDS011;30282;16.436;99.370;2023-10-13T12:45:50;10.33;;;6.80;;
12601;SDS011;30282;16.436;99.370;2023-10-13T12:48:36;14.10;;;6.60;;
12601;SDS011;30282;16.436;99.370;2023-10-13T12:51:32;13.10;;;6.80;;
12601;SDS011;30282;16.436;99.370;2023-10-13T12:54:18;9.60;;;5.60;;
12601;SDS011;30282;16.436;99.370;2023-10-13T12:56:49;11.10;;;6.60;;
12601;SDS011;30282;16.436;99.370;2023-10-13T12:59:23;12.80;;;6.77;;
12601;SDS011;30282;16.436;99.370;2023-10-13T13:01:54;10.53;;;6.20;;
12601;SDS011;30282;16.436;99.370;2023-10-13T13:04:26;10.83;;;6.87;;
12601;SDS011;30282;16.436;99.370;2023-10-13T13:07:04;11.40;;;7.43;;
12601;SDS011;30282;16.436;99.370;2023-10-13T13:09:39;11.97;;;6.90;;
12601;SDS011;30282;16.436;99.370;2023-10-13T13:12:12;17.40;;;6.73;;
12601;SDS011;30282;16.436;99.370;2023-10-13T13:14:44;12.47;;;6.47;;
12601;SDS011;30282;16.436;99.370;2023-10-13T13:17:13;14.07;;;7.47;;
12601;SDS011;30282;16.436;99.370;2023-10-13T13:19:45;10.90;;;6.83;;
12601;SDS011;30282;16.436;99.370;2023-10-13T13:22:22;11.20;;;6.60;;
12601;SDS011;30282;16.436;99.370;2023-10-13T13:24:53;10.83;;;6.93;;
12601;SDS011;30282;16.436;99.370;2023-10-13T13:27:23;13.40;;;7.60;;
12601;SDS011;30282;16.436;99.370;2023-10-13T13:29:53;8.37;;;5.93;;
12601;SDS011;30282;16.436;99.370;2023-10-13T13:32:23;11.13;;;6.10;;
12601;SDS011;30282;16.436;99.370;2023-10-13T13:34:55;13.07;;;6.23;;
12601;SDS011;30282;16.436;99.370;2023-10-13T13:37:32;15.30;;;6.20;;
12601;SDS011;30282;16.436;99.370;2023-10-13T13:40:03;11.43;;;6.80;;
12601;SDS011;30282;16.436;99.370;2023-10-13T13:42:41;11.40;;;5.90;;
12601;SDS011;30282;16.436;99.370;2023-10-13T13:45:16;13.10;;;6.07;;
12601;SDS011;30282;16.436;99.370;2023-10-13T13:47:55;12.60;;;6.20;;
12601;SDS011;30282;16.436;99.370;2023-10-13T13:50:25;18.07;;;7.07;;
12601;SDS011;30282;16.436;99.370;2023-10-13T13:53:06;13.00;;;7.90;;
12601;SDS011;30282;16.436;99.370;2023-10-13T13:55:37;19.43;;;7.67;;
12601;SDS011;30282;16.436;99.370;2023-10-13T13:58:11;24.03;;;7.63;;
12601;SDS011;30282;16.436;99.370;2023-10-13T14:00:41;16.40;;;7.53;;
12601;SDS011;30282;16.436;99.370;2023-10-13T14:03:17;12.43;;;7.20;;
12601;SDS011;30282;16.436;99.370;2023-10-13T14:06:00;14.10;;;7.80;;
12601;SDS011;30282;16.436;99.370;2023-10-13T14:08:53;13.90;;;7.40;;
12601;SDS011;30282;16.436;99.370;2023-10-13T14:11:41;18.33;;;7.60;;
12601;SDS011;30282;16.436;99.370;2023-10-13T14:14:27;11.33;;;6.97;;
12601;SDS011;30282;16.436;99.370;2023-10-13T14:19:46;12.53;;;6.00;;
12601;SDS011;30282;16.436;99.370;2023-10-13T14:22:21;16.37;;;6.90;;
12601;SDS011;30282;16.436;99.370;2023-10-13T14:24:57;13.00;;;6.60;;
12601;SDS011;30282;16.436;99.370;2023-10-13T14:27:34;14.40;;;6.20;;
12601;SDS011;30282;16.436;99.370;2023-10-13T14:30:04;13.10;;;7.27;;
12601;SDS011;30282;16.436;99.370;2023-10-13T14:32:35;16.73;;;6.60;;
12601;SDS011;30282;16.436;99.370;2023-10-13T14:35:06;10.40;;;7.00;;
12601;SDS011;30282;16.436;99.370;2023-10-13T14:37:40;11.87;;;7.17;;
12601;SDS011;30282;16.436;99.370;2023-10-13T14:40:12;13.50;;;7.13;;
12601;SDS011;30282;16.436;99.370;2023-10-13T14:42:42;14.80;;;7.00;;
12601;SDS011;30282;16.436;99.370;2023-10-13T14:45:12;10.90;;;7.30;;
12601;SDS011;30282;16.436;99.370;2023-10-13T14:47:42;9.73;;;7.07;;
12601;SDS011;30282;16.436;99.370;2023-10-13T14:50:12;10.63;;;7.17;;
12601;SDS011;30282;16.436;99.370;2023-10-13T14:52:45;24.53;;;7.50;;
12601;SDS011;30282;16.436;99.370;2023-10-13T14:55:17;13.50;;;6.13;;
12601;SDS011;30282;16.436;99.370;2023-10-13T14:57:47;13.57;;;7.30;;
12601;SDS011;30282;16.436;99.370;2023-10-13T15:00:17;12.10;;;6.37;;
12601;SDS011;30282;16.436;99.370;2023-10-13T15:02:52;20.47;;;6.47;;
12601;SDS011;30282;16.436;99.370;2023-10-13T15:05:22;12.53;;;6.13;;
12601;SDS011;30282;16.436;99.370;2023-10-13T15:07:55;13.33;;;7.40;;
12601;SDS011;30282;16.436;99.370;2023-10-13T15:10:27;10.23;;;7.13;;
12601;SDS011;30282;16.436;99.370;2023-10-13T15:12:56;12.30;;;6.30;;
12601;SDS011;30282;16.436;99.370;2023-10-13T15:15:28;13.23;;;7.17;;
12601;SDS011;30282;16.436;99.370;2023-10-13T15:18:01;15.37;;;6.97;;
12601;SDS011;30282;16.436;99.370;2023-10-13T15:20:31;20.10;;;8.23;;
12601;SDS011;30282;16.436;99.370;2023-10-13T15:23:09;14.60;;;7.40;;
12601;SDS011;30282;16.436;99.370;2023-10-13T15:25:42;9.70;;;7.10;;
12601;SDS011;30282;16.436;99.370;2023-10-13T15:28:19;7.50;;;5.67;;
12601;SDS011;30282;16.436;99.370;2023-10-13T15:30:54;9.10;;;6.50;;
12601;SDS011;30282;16.436;99.370;2023-10-13T15:33:35;11.90;;;6.90;;
12601;SDS011;30282;16.436;99.370;2023-10-13T15:36:09;16.20;;;7.07;;
12601;SDS011;30282;16.436;99.370;2023-10-13T15:38:39;8.87;;;5.97;;